Terminal Aerodrome Forecast
Issued by NWS

Home | Current Version | Previous Version | Text Only | Print | Product List | Glossary Off
Versions: 1 2 3 4 5 6 7 8 9 10 11 12 13 14 15 16 17 18 19 20 21 22 23

039
FTUS43 KDLH 242200 AAD
TAFHIB
TAF AMD
KHIB 242200Z 2422/2518 24012KT 6SM -RA BKN050
      TEMPO 2422/2423 4SM -TSRA OVC030CB
     FM242300 19005KT P6SM VCTS SCT045CB BKN140
     FM251400 23005KT P6SM VCTS BKN060CB=

USA.gov is the U.S. government's official web portal to all federal, state and local government web resources and services.